Time;durP1;ratioP1;P1;durP2;ratioP2;P2;SDS_P1;SDS_P2;PMS_P1;PMS_P2;Temp;Humidity;BMP_temperature;BMP_pressure;BME280_temperature;BME280_humidity;BME280_pressure;Samples;Min_cycle;Max_cycle;Signal;HPM_P1;HPM_P2
2022/03/30 00:01:46;;;;;;;29.60;12.13;;;;;;;;;;5075951;28;20528;-63
2022/03/30 00:04:12;;;;;;;28.00;11.48;;;;;;;;;;5076285;28;20085;-63
2022/03/30 00:06:39;;;;;;;26.33;11.77;;;;;;;;;;5066566;28;20562;-63
2022/03/30 00:09:05;;;;;;;31.73;11.77;;;;;;;;;;5077703;28;20144;-63
2022/03/30 00:11:31;;;;;;;27.30;11.63;;;;;;;;;;5067360;28;20604;-63
2022/03/30 00:13:58;;;;;;;28.35;12.52;;;;;;;;;;5068564;28;20089;-63
2022/03/30 00:16:24;;;;;;;35.72;13.38;;;;;;;;;;5065680;28;20525;-63
2022/03/30 00:18:51;;;;;;;25.83;12.20;;;;;;;;;;5064491;28;20056;-63
2022/03/30 00:21:17;;;;;;;28.45;11.57;;;;;;;;;;5066432;28;20481;-63
2022/03/30 00:23:43;;;;;;;26.10;11.35;;;;;;;;;;5065735;28;20083;-64
2022/03/30 00:26:11;;;;;;;40.28;14.57;;;;;;;;;;5066180;28;20494;-63
2022/03/30 00:28:37;;;;;;;30.63;11.45;;;;;;;;;;5066044;28;20148;-63
2022/03/30 00:31:03;;;;;;;29.95;11.75;;;;;;;;;;5066062;28;20050;-63
2022/03/30 00:33:30;;;;;;;30.77;11.57;;;;;;;;;;5066118;28;20106;-63
2022/03/30 00:35:56;;;;;;;30.50;12.70;;;;;;;;;;5066083;28;20057;-63
2022/03/30 00:38:23;;;;;;;34.90;12.18;;;;;;;;;;5084836;28;20067;-64
2022/03/30 00:40:49;;;;;;;34.35;12.15;;;;;;;;;;5077014;28;20048;-63
2022/03/30 00:43:16;;;;;;;33.33;12.18;;;;;;;;;;5072460;28;20110;-63
2022/03/30 00:45:42;;;;;;;28.83;11.93;;;;;;;;;;5069509;28;20180;-63
2022/03/30 00:48:09;;;;;;;33.53;11.88;;;;;;;;;;5080789;28;20110;-63
2022/03/30 00:50:35;;;;;;;29.00;11.52;;;;;;;;;;5077262;28;20055;-63
2022/03/30 00:53:02;;;;;;;31.42;11.82;;;;;;;;;;5076982;28;20072;-63
2022/03/30 00:55:29;;;;;;;31.67;12.77;;;;;;;;;;5080960;28;20061;-63
2022/03/30 00:57:57;;;;;;;30.27;11.40;;;;;;;;;;5088179;28;20128;-64
2022/03/30 01:00:23;;;;;;;36.88;12.10;;;;;;;;;;5086301;28;20053;-68
2022/03/30 01:02:50;;;;;;;30.75;12.55;;;;;;;;;;5072951;28;20061;-63
2022/03/30 01:05:17;;;;;;;34.60;13.02;;;;;;;;;;5073473;28;20056;-63
2022/03/30 01:07:44;;;;;;;31.70;12.25;;;;;;;;;;5069611;28;20073;-63
2022/03/30 01:10:11;;;;;;;38.30;13.45;;;;;;;;;;5075423;28;20148;-63
2022/03/30 01:12:40;;;;;;;28.95;12.40;;;;;;;;;;5087227;28;20087;-63
2022/03/30 01:15:11;;;;;;;32.33;12.73;;;;;;;;;;5076754;28;20100;-63
2022/03/30 01:17:38;;;;;;;33.03;12.98;;;;;;;;;;5084670;28;20052;-63
2022/03/30 01:20:05;;;;;;;30.65;12.52;;;;;;;;;;5066916;28;20049;-63
2022/03/30 01:22:33;;;;;;;34.85;12.90;;;;;;;;;;5082408;28;20582;-64
2022/03/30 01:25:00;;;;;;;29.25;12.10;;;;;;;;;;5085786;28;20819;-64
2022/03/30 01:27:26;;;;;;;35.72;13.30;;;;;;;;;;5086362;28;20063;-64
2022/03/30 01:32:38;;;;;;;36.22;13.10;;;;;;;;;;5083033;28;20063;-63
2022/03/30 01:35:06;;;;;;;32.15;12.32;;;;;;;;;;5082595;28;20056;-67
2022/03/30 01:37:32;;;;;;;30.98;12.30;;;;;;;;;;5087367;28;20052;-66
2022/03/30 01:40:00;;;;;;;36.78;13.30;;;;;;;;;;5085657;28;20063;-64
2022/03/30 01:42:27;;;;;;;31.35;13.02;;;;;;;;;;5071020;28;20057;-65
2022/03/30 01:44:54;;;;;;;36.65;12.52;;;;;;;;;;5072206;28;20501;-65
2022/03/30 01:47:20;;;;;;;41.72;13.02;;;;;;;;;;5088394;28;20144;-67
2022/03/30 01:49:47;;;;;;;29.02;12.13;;;;;;;;;;5087253;28;20061;-64
2022/03/30 01:52:16;;;;;;;31.02;11.65;;;;;;;;;;5086857;28;20143;-63
2022/03/30 01:54:43;;;;;;;31.67;12.50;;;;;;;;;;5078143;28;20044;-63
2022/03/30 01:57:12;;;;;;;29.55;12.40;;;;;;;;;;5070850;28;20076;-63
2022/03/30 01:59:42;;;;;;;31.00;12.88;;;;;;;;;;5084348;28;20167;-63
2022/03/30 02:02:09;;;;;;;29.58;11.63;;;;;;;;;;5088040;28;20243;-64
2022/03/30 02:04:38;;;;;;;27.10;11.43;;;;;;;;;;5083770;28;20051;-63
2022/03/30 02:07:06;;;;;;;33.33;12.43;;;;;;;;;;5088089;28;20403;-63
2022/03/30 02:09:32;;;;;;;43.20;12.80;;;;;;;;;;5087743;28;20057;-63
2022/03/30 02:11:59;;;;;;;35.30;11.35;;;;;;;;;;5087764;28;20110;-63
2022/03/30 02:14:26;;;;;;;32.08;11.85;;;;;;;;;;5085096;28;20088;-63
2022/03/30 02:16:53;;;;;;;33.63;12.40;;;;;;;;;;5088691;28;20143;-63
2022/03/30 02:19:19;;;;;;;30.83;11.30;;;;;;;;;;5069018;28;20053;-63
2022/03/30 02:21:45;;;;;;;27.77;12.38;;;;;;;;;;5088445;28;20572;-63
2022/03/30 02:24:12;;;;;;;30.60;12.98;;;;;;;;;;5076079;28;20095;-63
2022/03/30 02:26:38;;;;;;;35.55;12.85;;;;;;;;;;5079675;28;20052;-63
2022/03/30 02:29:04;;;;;;;41.60;12.38;;;;;;;;;;5071791;28;20140;-63
2022/03/30 02:31:31;;;;;;;29.92;12.50;;;;;;;;;;5086661;28;20087;-63
2022/03/30 02:33:57;;;;;;;33.13;13.40;;;;;;;;;;5080434;28;20056;-63
2022/03/30 02:36:23;;;;;;;36.88;13.07;;;;;;;;;;5067623;28;20089;-63
2022/03/30 02:38:50;;;;;;;36.95;12.15;;;;;;;;;;5069487;28;20143;-63
2022/03/30 02:41:16;;;;;;;27.92;11.45;;;;;;;;;;5071619;28;20541;-63
2022/03/30 02:43:42;;;;;;;32.60;11.52;;;;;;;;;;5071733;28;20049;-63
2022/03/30 02:46:09;;;;;;;30.77;10.85;;;;;;;;;;5085156;28;20143;-63
2022/03/30 02:48:37;;;;;;;27.30;12.23;;;;;;;;;;5085947;28;20063;-63
2022/03/30 02:51:05;;;;;;;33.22;12.40;;;;;;;;;;5070697;28;20154;-63
2022/03/30 02:53:32;;;;;;;31.40;12.43;;;;;;;;;;5067940;28;20076;-63
2022/03/30 02:55:58;;;;;;;28.27;11.43;;;;;;;;;;5068941;28;20486;-63
2022/03/30 02:58:24;;;;;;;27.30;12.88;;;;;;;;;;5069350;28;20128;-63
2022/03/30 03:00:51;;;;;;;32.50;12.73;;;;;;;;;;5068428;28;20143;-66
2022/03/30 03:03:17;;;;;;;27.85;12.77;;;;;;;;;;5067459;28;20057;-63
2022/03/30 03:05:43;;;;;;;29.95;11.82;;;;;;;;;;5069814;28;20048;-63
2022/03/30 03:08:11;;;;;;;28.40;11.18;;;;;;;;;;5071881;28;20590;-63
2022/03/30 03:10:39;;;;;;;31.88;12.35;;;;;;;;;;5086015;28;20588;-63
2022/03/30 03:13:06;;;;;;;27.77;10.75;;;;;;;;;;5075329;28;20151;-63
2022/03/30 03:15:34;;;;;;;28.58;11.43;;;;;;;;;;5081056;28;20068;-63
2022/03/30 03:18:03;;;;;;;33.92;12.48;;;;;;;;;;5066424;28;20057;-63
2022/03/30 03:20:30;;;;;;;24.92;11.40;;;;;;;;;;5067243;28;20144;-63
2022/03/30 03:22:57;;;;;;;29.63;11.73;;;;;;;;;;5068639;28;20049;-63
2022/03/30 03:25:23;;;;;;;29.08;11.35;;;;;;;;;;5087492;28;20159;-63
2022/03/30 03:27:52;;;;;;;33.88;12.77;;;;;;;;;;5072648;28;20144;-63
2022/03/30 03:30:18;;;;;;;;;;;;;;;;;;5068673;28;20045;-63
2022/03/30 03:32:45;;;;;;;34.20;12.23;;;;;;;;;;5078153;28;45441;-63
2022/03/30 03:35:13;;;;;;;27.10;11.75;;;;;;;;;;5067215;28;20586;-63
2022/03/30 03:37:40;;;;;;;29.02;11.73;;;;;;;;;;5066665;28;20183;-63
2022/03/30 03:40:08;;;;;;;32.28;12.10;;;;;;;;;;5064747;28;20045;-63
2022/03/30 03:42:35;;;;;;;37.42;12.40;;;;;;;;;;5073566;28;20822;-63
2022/03/30 03:45:03;;;;;;;33.47;11.95;;;;;;;;;;5077938;28;20420;-63
2022/03/30 03:47:29;;;;;;;35.92;12.20;;;;;;;;;;5066883;28;20589;-63
2022/03/30 03:49:56;;;;;;;37.40;13.18;;;;;;;;;;5080302;28;20144;-63
2022/03/30 03:52:22;;;;;;;30.85;12.77;;;;;;;;;;5087215;28;20072;-63
2022/03/30 03:54:48;;;;;;;30.65;12.75;;;;;;;;;;5087323;28;20530;-63
2022/03/30 03:57:15;;;;;;;33.40;12.68;;;;;;;;;;5087451;28;20049;-62
2022/03/30 03:59:41;;;;;;;31.48;13.60;;;;;;;;;;5086304;28;20569;-62
2022/03/30 04:02:07;;;;;;;39.92;13.50;;;;;;;;;;5075610;28;20419;-62
2022/03/30 04:04:34;;;;;;;32.63;13.02;;;;;;;;;;5087682;28;20058;-62
2022/03/30 04:07:01;;;;;;;30.08;12.73;;;;;;;;;;5087028;28;20088;-62
2022/03/30 04:09:27;;;;;;;33.38;13.50;;;;;;;;;;5087271;28;20591;-63
2022/03/30 04:11:53;;;;;;;33.65;12.60;;;;;;;;;;5086991;28;20144;-63
2022/03/30 04:14:20;;;;;;;28.50;12.68;;;;;;;;;;5088492;28;20914;-62
2022/03/30 04:16:47;;;;;;;28.75;12.05;;;;;;;;;;5090565;28;20143;-62
2022/03/30 04:19:15;;;;;;;36.65;14.23;;;;;;;;;;5090852;28;20044;-62
2022/03/30 04:21:45;;;;;;;27.63;13.13;;;;;;;;;;5090806;28;20151;-62
2022/03/30 04:24:12;;;;;;;41.03;14.38;;;;;;;;;;5090454;28;20143;-62
2022/03/30 04:26:38;;;;;;;32.35;14.05;;;;;;;;;;5090181;28;20052;-62
2022/03/30 04:29:05;;;;;;;33.67;13.35;;;;;;;;;;5089869;28;20457;-63
2022/03/30 04:31:32;;;;;;;33.80;13.43;;;;;;;;;;5090385;28;20052;-62
2022/03/30 04:33:59;;;;;;;31.30;12.95;;;;;;;;;;5090192;28;20140;-62
2022/03/30 04:36:26;;;;;;;37.60;12.82;;;;;;;;;;5089734;28;20143;-62
2022/03/30 04:38:52;;;;;;;32.85;13.60;;;;;;;;;;5074008;28;20568;-62
2022/03/30 04:41:19;;;;;;;28.75;13.15;;;;;;;;;;5070152;28;20558;-62
2022/03/30 04:43:46;;;;;;;28.75;12.82;;;;;;;;;;5077621;28;20049;-62
2022/03/30 04:46:13;;;;;;;31.17;12.85;;;;;;;;;;5075933;28;20049;-62
2022/03/30 04:48:39;;;;;;;28.23;12.35;;;;;;;;;;5076827;28;20049;-62
2022/03/30 04:51:06;;;;;;;27.83;13.35;;;;;;;;;;5089261;28;20605;-62
2022/03/30 04:53:32;;;;;;;31.85;13.57;;;;;;;;;;5080949;28;20181;-62
2022/03/30 04:55:59;;;;;;;30.88;12.95;;;;;;;;;;5084641;28;20529;-62
2022/03/30 04:58:25;;;;;;;28.20;12.48;;;;;;;;;;5086297;28;20051;-62
2022/03/30 05:00:51;;;;;;;32.00;13.20;;;;;;;;;;5073645;28;20082;-62
2022/03/30 05:03:18;;;;;;;33.30;12.50;;;;;;;;;;5085512;28;20052;-62
2022/03/30 05:05:44;;;;;;;29.52;13.07;;;;;;;;;;5075606;28;20051;-62
2022/03/30 05:08:11;;;;;;;31.08;14.00;;;;;;;;;;5075515;28;20132;-62
2022/03/30 05:10:37;;;;;;;30.20;11.70;;;;;;;;;;5077954;28;20566;-62
2022/03/30 05:13:05;;;;;;;33.90;12.45;;;;;;;;;;5080677;28;20088;-63
2022/03/30 05:15:32;;;;;;;38.97;14.40;;;;;;;;;;5079822;28;20494;-62
2022/03/30 05:18:00;;;;;;;29.45;12.93;;;;;;;;;;5080005;28;20080;-63
2022/03/30 05:20:26;;;;;;;33.13;12.90;;;;;;;;;;5074067;28;20618;-63
2022/03/30 05:22:53;;;;;;;29.83;12.75;;;;;;;;;;5069097;28;20103;-62
2022/03/30 05:25:19;;;;;;;35.35;12.32;;;;;;;;;;5070726;28;20542;-63
2022/03/30 05:27:46;;;;;;;31.50;13.13;;;;;;;;;;5069381;28;20115;-62
2022/03/30 05:30:12;;;;;;;27.67;12.68;;;;;;;;;;5068759;28;20053;-62
2022/03/30 05:32:40;;;;;;;31.42;12.23;;;;;;;;;;5070200;28;20061;-62
2022/03/30 05:35:07;;;;;;;29.77;13.23;;;;;;;;;;5072175;28;20063;-62
2022/03/30 05:37:33;;;;;;;31.58;13.13;;;;;;;;;;5069100;28;20053;-62
2022/03/30 05:39:59;;;;;;;30.25;12.55;;;;;;;;;;5068136;28;20152;-62
2022/03/30 05:42:26;;;;;;;32.58;13.43;;;;;;;;;;5069069;28;20053;-62
2022/03/30 05:44:52;;;;;;;36.03;13.90;;;;;;;;;;5076034;28;20044;-63
2022/03/30 05:47:18;;;;;;;30.90;13.00;;;;;;;;;;5069105;28;20940;-63
2022/03/30 05:49:45;;;;;;;33.03;14.18;;;;;;;;;;5068626;28;20060;-62
2022/03/30 05:52:11;;;;;;;33.83;14.15;;;;;;;;;;5068499;28;20152;-62
2022/03/30 05:54:39;;;;;;;31.23;13.52;;;;;;;;;;5072016;28;20053;-63
2022/03/30 05:57:07;;;;;;;35.55;14.73;;;;;;;;;;5067847;28;20580;-63
2022/03/30 05:59:34;;;;;;;27.55;12.98;;;;;;;;;;5071089;28;20556;-62
2022/03/30 06:02:01;;;;;;;34.08;13.40;;;;;;;;;;5076686;28;20059;-63
2022/03/30 06:04:27;;;;;;;35.17;12.15;;;;;;;;;;5071059;28;20071;-62
2022/03/30 06:06:54;;;;;;;34.25;13.38;;;;;;;;;;5068174;28;20061;-62
2022/03/30 06:09:20;;;;;;;42.97;14.68;;;;;;;;;;5068128;28;20059;-62
2022/03/30 06:12:05;;;;;;;33.50;14.05;;;;;;;;;;5075738;28;20063;-62
2022/03/30 06:14:31;;;;;;;32.08;13.90;;;;;;;;;;5067370;28;20148;-63
2022/03/30 06:16:58;;;;;;;37.30;14.93;;;;;;;;;;5066325;28;20055;-63
2022/03/30 06:19:24;;;;;;;26.75;12.50;;;;;;;;;;5067606;28;20073;-62
2022/03/30 06:21:51;;;;;;;37.38;14.45;;;;;;;;;;5080289;28;20048;-63
2022/03/30 06:24:17;;;;;;;35.53;13.32;;;;;;;;;;5074779;28;20071;-62
2022/03/30 06:26:44;;;;;;;34.22;14.45;;;;;;;;;;5081819;28;20508;-62
2022/03/30 06:29:10;;;;;;;37.97;13.93;;;;;;;;;;5068070;28;20594;-63
2022/03/30 06:31:36;;;;;;;30.73;14.05;;;;;;;;;;5067969;28;20144;-62
2022/03/30 06:34:03;;;;;;;34.40;14.52;;;;;;;;;;5074951;28;21288;-62
2022/03/30 06:36:30;;;;;;;34.22;13.80;;;;;;;;;;5071235;28;20877;-63
2022/03/30 06:38:57;;;;;;;35.78;15.32;;;;;;;;;;5087983;28;20056;-62
2022/03/30 06:41:24;;;;;;;37.47;15.13;;;;;;;;;;5069741;28;20500;-62
2022/03/30 06:43:50;;;;;;;40.38;14.57;;;;;;;;;;5069004;28;20049;-62
2022/03/30 06:46:18;;;;;;;37.38;15.65;;;;;;;;;;5067938;28;20144;-62
2022/03/30 06:48:45;;;;;;;43.53;15.77;;;;;;;;;;5067363;28;20061;-62
2022/03/30 06:51:13;;;;;;;40.80;15.88;;;;;;;;;;5078448;28;20975;-62
2022/03/30 06:53:39;;;;;;;1999.90;703.72;;;;;;;;;;5067781;28;20520;-62
2022/03/30 06:56:05;;;;;;;1170.13;142.88;;;;;;;;;;5073856;28;20063;-62
2022/03/30 06:58:32;;;;;;;53.70;17.90;;;;;;;;;;5085153;28;20065;-63
2022/03/30 07:00:59;;;;;;;38.72;15.07;;;;;;;;;;5071502;28;20507;-63
2022/03/30 07:03:28;;;;;;;49.15;16.73;;;;;;;;;;5085678;28;20048;-62
2022/03/30 07:05:57;;;;;;;45.65;15.63;;;;;;;;;;5097312;27;20053;-62
2022/03/30 07:11:08;;;;;;;39.17;15.73;;;;;;;;;;5067398;28;20063;-62
2022/03/30 07:13:35;;;;;;;38.72;15.25;;;;;;;;;;5069578;28;20152;-62
2022/03/30 07:16:02;;;;;;;36.38;16.42;;;;;;;;;;5080776;28;20507;-62
2022/03/30 07:18:28;;;;;;;43.80;15.18;;;;;;;;;;5075256;28;20142;-62
2022/03/30 07:20:55;;;;;;;39.90;15.48;;;;;;;;;;5076090;28;20144;-62
2022/03/30 07:23:23;;;;;;;34.92;13.65;;;;;;;;;;5087718;28;20076;-63
2022/03/30 07:25:50;;;;;;;32.88;13.95;;;;;;;;;;5087179;28;20084;-62
2022/03/30 07:28:17;;;;;;;37.75;13.85;;;;;;;;;;5075458;28;20163;-63
2022/03/30 07:30:44;;;;;;;35.28;13.25;;;;;;;;;;5064789;28;20139;-62
2022/03/30 07:33:11;;;;;;;34.22;13.65;;;;;;;;;;5067037;28;20510;-62
2022/03/30 07:35:39;;;;;;;32.90;14.27;;;;;;;;;;5067521;28;20611;-62
2022/03/30 07:38:06;;;;;;;36.38;14.50;;;;;;;;;;5066606;28;20049;-62
2022/03/30 07:40:33;;;;;;;29.73;12.80;;;;;;;;;;5066889;28;20135;-62
2022/03/30 07:43:00;;;;;;;31.92;13.50;;;;;;;;;;5066090;28;20077;-62
2022/03/30 07:45:26;;;;;;;35.28;15.20;;;;;;;;;;5066580;28;20549;-62
2022/03/30 07:47:53;;;;;;;34.10;14.82;;;;;;;;;;5065950;28;20143;-63
2022/03/30 07:50:19;;;;;;;31.95;13.43;;;;;;;;;;5067100;28;20127;-62
2022/03/30 07:52:46;;;;;;;29.40;13.43;;;;;;;;;;5067076;28;20156;-62
2022/03/30 07:55:12;;;;;;;33.60;12.35;;;;;;;;;;5067073;28;20144;-63
2022/03/30 07:57:42;;;;;;;29.67;12.02;;;;;;;;;;5066337;28;20073;-63
2022/03/30 08:00:12;;;;;;;28.58;12.18;;;;;;;;;;5066646;28;20136;-62
2022/03/30 08:02:39;;;;;;;32.15;13.00;;;;;;;;;;5066781;28;20147;-63
2022/03/30 08:05:08;;;;;;;28.67;12.43;;;;;;;;;;5066186;28;20061;-63
2022/03/30 08:07:34;;;;;;;35.50;13.18;;;;;;;;;;5066264;28;20994;-63
2022/03/30 08:10:01;;;;;;;30.05;12.20;;;;;;;;;;5066576;28;20393;-63
2022/03/30 08:12:27;;;;;;;35.15;14.63;;;;;;;;;;5066478;28;20412;-63
2022/03/30 08:14:54;;;;;;;34.13;13.43;;;;;;;;;;5066048;28;20549;-63
2022/03/30 08:17:20;;;;;;;31.98;13.82;;;;;;;;;;5065728;28;20584;-62
2022/03/30 08:19:47;;;;;;;40.20;13.35;;;;;;;;;;5066878;28;20067;-63
2022/03/30 08:22:28;;;;;;;34.53;13.48;;;;;;;;;;5066173;28;20140;-62
2022/03/30 08:24:55;;;;;;;31.00;13.73;;;;;;;;;;5066239;28;20517;-62
2022/03/30 08:27:23;;;;;;;31.42;13.70;;;;;;;;;;5066279;28;20071;-63
2022/03/30 08:29:51;;;;;;;39.85;15.35;;;;;;;;;;5065612;28;20056;-62
2022/03/30 08:32:18;;;;;;;39.43;13.43;;;;;;;;;;5066280;28;20586;-63
2022/03/30 08:34:45;;;;;;;39.28;13.27;;;;;;;;;;5065979;28;20355;-63
2022/03/30 08:37:11;;;;;;;33.35;14.05;;;;;;;;;;5066516;28;20073;-62
2022/03/30 08:39:37;;;;;;;29.00;13.07;;;;;;;;;;5066621;28;20080;-63
2022/03/30 08:42:05;;;;;;;29.15;12.93;;;;;;;;;;5065697;28;20049;-63
2022/03/30 08:44:32;;;;;;;25.77;13.25;;;;;;;;;;5065663;28;20136;-63
2022/03/30 08:46:59;;;;;;;33.38;12.70;;;;;;;;;;5066034;28;20065;-63
2022/03/30 08:49:27;;;;;;;31.67;13.48;;;;;;;;;;5065492;28;20060;-64
2022/03/30 08:51:54;;;;;;;28.90;13.45;;;;;;;;;;5065623;28;20053;-63
2022/03/30 08:54:21;;;;;;;27.20;11.43;;;;;;;;;;5066562;28;20069;-63
2022/03/30 08:56:49;;;;;;;22.77;9.98;;;;;;;;;;5065778;28;20045;-64
2022/03/30 08:59:17;;;;;;;26.55;11.10;;;;;;;;;;5066403;28;20139;-64
2022/03/30 09:01:44;;;;;;;22.15;9.80;;;;;;;;;;5069104;28;20083;-63
2022/03/30 09:04:12;;;;;;;15.97;8.03;;;;;;;;;;5068905;28;20529;-64
2022/03/30 09:06:41;;;;;;;23.10;9.35;;;;;;;;;;5069915;28;20053;-64
2022/03/30 09:09:08;;;;;;;18.17;6.72;;;;;;;;;;5069507;28;20088;-64
2022/03/30 09:11:53;;;;;;;21.88;7.68;;;;;;;;;;5068917;28;20186;-64
2022/03/30 09:14:20;;;;;;;19.85;8.02;;;;;;;;;;5069114;28;20507;-64
2022/03/30 09:16:48;;;;;;;22.40;8.65;;;;;;;;;;5068482;28;20459;-64
2022/03/30 09:19:16;;;;;;;23.67;9.10;;;;;;;;;;5069221;28;20623;-64
2022/03/30 09:21:52;;;;;;;20.33;8.77;;;;;;;;;;5069171;28;20135;-64
2022/03/30 09:24:20;;;;;;;17.83;8.10;;;;;;;;;;5067991;28;20079;-64
2022/03/30 09:26:47;;;;;;;17.27;5.45;;;;;;;;;;5069409;28;20100;-63
2022/03/30 09:29:14;;;;;;;12.70;5.70;;;;;;;;;;5069480;28;20053;-63
2022/03/30 09:31:41;;;;;;;12.32;6.07;;;;;;;;;;5068708;28;20111;-64
2022/03/30 09:34:09;;;;;;;25.02;7.70;;;;;;;;;;5068706;28;20148;-64
2022/03/30 09:36:36;;;;;;;16.13;7.40;;;;;;;;;;5067913;28;20148;-63
2022/03/30 09:39:04;;;;;;;15.00;7.13;;;;;;;;;;5068657;28;20140;-62
2022/03/30 09:41:44;;;;;;;15.00;7.07;;;;;;;;;;5068758;28;20139;-63
2022/03/30 09:44:10;;;;;;;17.92;7.40;;;;;;;;;;5068174;28;20061;-63
2022/03/30 09:46:49;;;;;;;16.98;7.90;;;;;;;;;;5068146;28;20180;-62
2022/03/30 09:49:31;;;;;;;15.32;7.68;;;;;;;;;;5068435;28;20049;-64
2022/03/30 09:51:57;;;;;;;13.25;7.20;;;;;;;;;;5068390;28;20487;-62
2022/03/30 09:54:42;;;;;;;16.08;7.15;;;;;;;;;;5067951;28;20049;-63
2022/03/30 09:57:13;;;;;;;19.52;7.15;;;;;;;;;;5068506;28;20076;-62
2022/03/30 09:59:55;;;;;;;8.38;4.18;;;;;;;;;;5068509;28;20148;-62
2022/03/30 10:02:21;;;;;;;12.35;5.25;;;;;;;;;;5067211;28;20591;-62
2022/03/30 10:04:48;;;;;;;9.50;3.63;;;;;;;;;;5068149;28;20056;-63
2022/03/30 10:07:14;;;;;;;9.98;3.53;;;;;;;;;;5067952;28;20143;-62
2022/03/30 10:09:42;;;;;;;9.60;4.03;;;;;;;;;;5068708;28;20119;-63
2022/03/30 10:12:08;;;;;;;12.23;4.15;;;;;;;;;;5066930;28;20053;-62
2022/03/30 10:14:36;;;;;;;9.10;3.80;;;;;;;;;;5068045;28;20057;-62
2022/03/30 10:17:02;;;;;;;7.57;3.28;;;;;;;;;;5068068;28;20507;-63
2022/03/30 10:19:29;;;;;;;9.95;3.88;;;;;;;;;;5067970;28;20065;-63
2022/03/30 10:22:14;;;;;;;9.57;3.92;;;;;;;;;;5067068;28;20139;-63
2022/03/30 10:24:51;;;;;;;6.03;2.97;;;;;;;;;;5067394;28;20049;-63
2022/03/30 10:27:30;;;;;;;9.70;3.10;;;;;;;;;;5067804;28;20160;-63
2022/03/30 10:30:00;;;;;;;5.70;2.72;;;;;;;;;;5068366;28;20103;-63
2022/03/30 10:32:33;;;;;;;5.40;2.50;;;;;;;;;;5068328;28;20079;-63
2022/03/30 10:35:05;;;;;;;7.28;2.72;;;;;;;;;;5067233;28;20144;-63
2022/03/30 10:37:37;;;;;;;4.90;2.30;;;;;;;;;;5068366;28;20152;-63
2022/03/30 10:40:04;;;;;;;6.47;2.35;;;;;;;;;;5067794;28;20092;-63
2022/03/30 10:42:45;;;;;;;5.10;2.30;;;;;;;;;;5067645;28;20064;-63
2022/03/30 10:45:30;;;;;;;6.82;2.60;;;;;;;;;;5067172;28;20144;-63
2022/03/30 10:48:10;;;;;;;5.38;2.40;;;;;;;;;;5067386;28;20052;-63
2022/03/30 10:50:41;;;;;;;6.45;2.65;;;;;;;;;;5067147;28;20053;-63
2022/03/30 10:53:26;;;;;;;8.70;2.30;;;;;;;;;;5067201;28;20053;-63
2022/03/30 10:55:52;;;;;;;7.10;1.80;;;;;;;;;;5067560;28;20053;-63
2022/03/30 10:58:20;;;;;;;6.85;2.20;;;;;;;;;;5067244;28;20076;-63
2022/03/30 11:00:46;;;;;;;5.88;1.85;;;;;;;;;;5067446;28;20067;-63
2022/03/30 11:03:14;;;;;;;5.28;2.10;;;;;;;;;;5067271;28;20487;-63
2022/03/30 11:05:46;;;;;;;4.03;1.83;;;;;;;;;;5067222;28;20180;-63
2022/03/30 11:08:48;;;;;;;6.65;2.30;;;;;;;;;;5068103;28;20144;-63
2022/03/30 11:11:22;;;;;;;5.65;2.13;;;;;;;;;;5044405;28;20056;-63
2022/03/30 11:13:49;;;;;;;3.95;1.90;;;;;;;;;;5062944;28;20088;-63
2022/03/30 11:16:16;;;;;;;6.32;2.08;;;;;;;;;;5067116;28;20135;-63
2022/03/30 11:18:54;;;;;;;4.00;1.70;;;;;;;;;;5067364;28;20107;-63
2022/03/30 11:21:21;;;;;;;3.70;1.60;;;;;;;;;;5067302;28;20144;-63
2022/03/30 11:24:06;;;;;;;7.00;1.88;;;;;;;;;;5065825;28;20091;-63
2022/03/30 11:26:55;;;;;;;4.50;1.73;;;;;;;;;;5068074;28;20064;-63
2022/03/30 11:29:40;;;;;;;4.20;1.83;;;;;;;;;;5066437;28;20107;-63
2022/03/30 11:32:19;;;;;;;4.90;2.05;;;;;;;;;;5067335;28;20087;-63
2022/03/30 11:34:46;;;;;;;4.35;1.77;;;;;;;;;;5066987;28;20132;-62
2022/03/30 11:37:13;;;;;;;6.13;1.75;;;;;;;;;;5067217;28;20059;-63
2022/03/30 11:39:40;;;;;;;3.97;1.65;;;;;;;;;;5066674;28;20151;-63
2022/03/30 11:42:07;;;;;;;4.22;1.45;;;;;;;;;;5066479;28;20664;-63
2022/03/30 11:47:21;;;;;;;3.83;1.50;;;;;;;;;;5066776;28;20148;-63
2022/03/30 11:49:49;;;;;;;3.90;1.40;;;;;;;;;;5066491;28;20148;-63
2022/03/30 11:52:22;;;;;;;5.13;1.70;;;;;;;;;;5066503;28;20096;-63
2022/03/30 11:54:55;;;;;;;6.45;1.15;;;;;;;;;;5066156;28;20894;-63
2022/03/30 11:57:22;;;;;;;4.47;1.40;;;;;;;;;;5066427;28;20144;-63
2022/03/30 11:59:56;;;;;;;4.40;1.40;;;;;;;;;;5066531;28;20135;-63
2022/03/30 12:02:22;;;;;;;9.73;1.83;;;;;;;;;;5066266;28;20055;-63
2022/03/30 12:04:49;;;;;;;5.18;1.40;;;;;;;;;;5066292;28;20530;-64
2022/03/30 12:07:16;;;;;;;4.82;1.40;;;;;;;;;;5066274;28;20147;-64
2022/03/30 12:09:46;;;;;;;4.07;1.30;;;;;;;;;;5067180;28;20503;-63
2022/03/30 12:12:12;;;;;;;3.40;1.40;;;;;;;;;;5066844;28;20836;-64
2022/03/30 12:14:40;;;;;;;4.05;1.42;;;;;;;;;;5066029;28;20049;-64
2022/03/30 12:17:06;;;;;;;4.57;1.50;;;;;;;;;;5065635;28;20561;-63
2022/03/30 12:19:32;;;;;;;4.25;1.70;;;;;;;;;;5066444;28;20267;-63
2022/03/30 12:22:05;;;;;;;4.10;1.80;;;;;;;;;;5066417;28;20156;-63
2022/03/30 12:24:32;;;;;;;4.25;1.60;;;;;;;;;;5066759;28;20152;-63
2022/03/30 12:26:59;;;;;;;2.95;1.50;;;;;;;;;;5066260;28;20052;-63
2022/03/30 12:29:30;;;;;;;3.58;1.52;;;;;;;;;;5066421;28;20144;-63
2022/03/30 12:31:57;;;;;;;5.82;1.45;;;;;;;;;;5066241;28;20057;-63
2022/03/30 12:34:25;;;;;;;4.20;1.90;;;;;;;;;;5067248;28;20131;-63
2022/03/30 12:36:58;;;;;;;4.95;2.20;;;;;;;;;;5068995;28;20061;-63
2022/03/30 12:39:26;;;;;;;4.53;1.90;;;;;;;;;;5069508;28;20053;-64
2022/03/30 12:42:00;;;;;;;3.17;1.80;;;;;;;;;;5069867;28;20049;-63
2022/03/30 12:44:29;;;;;;;4.43;1.63;;;;;;;;;;5069649;28;20061;-63
2022/03/30 12:46:58;;;;;;;4.63;1.75;;;;;;;;;;5069125;28;20144;-64
2022/03/30 12:49:38;;;;;;;4.97;1.80;;;;;;;;;;5068840;28;20052;-63
2022/03/30 12:52:05;;;;;;;7.00;1.73;;;;;;;;;;5069445;28;20057;-63
2022/03/30 12:54:31;;;;;;;6.25;1.80;;;;;;;;;;5069329;28;20059;-63
2022/03/30 12:56:57;;;;;;;3.13;1.40;;;;;;;;;;5068650;28;20481;-63
2022/03/30 12:59:25;;;;;;;4.32;1.65;;;;;;;;;;5069440;28;20494;-63
2022/03/30 13:01:51;;;;;;;4.97;1.55;;;;;;;;;;5068997;28;20061;-64
2022/03/30 13:04:19;;;;;;;4.13;1.45;;;;;;;;;;5069903;28;20057;-63
2022/03/30 13:07:03;;;;;;;3.90;1.85;;;;;;;;;;5068826;28;20077;-63
2022/03/30 13:09:30;;;;;;;5.60;1.60;;;;;;;;;;5069766;28;20136;-64
2022/03/30 13:11:57;;;;;;;4.32;1.42;;;;;;;;;;5069069;28;20280;-64
2022/03/30 13:14:24;;;;;;;10.85;1.80;;;;;;;;;;5069046;28;20048;-63
2022/03/30 13:16:55;;;;;;;5.10;1.80;;;;;;;;;;5068925;28;20148;-63
2022/03/30 13:19:25;;;;;;;3.85;1.40;;;;;;;;;;5068961;28;20148;-64
2022/03/30 13:21:52;;;;;;;4.13;1.70;;;;;;;;;;5068770;28;20103;-63
2022/03/30 13:24:24;;;;;;;6.72;1.90;;;;;;;;;;5068982;28;20140;-63
2022/03/30 13:26:54;;;;;;;4.00;1.80;;;;;;;;;;5068551;28;20140;-63
2022/03/30 13:29:21;;;;;;;3.38;1.40;;;;;;;;;;5068823;28;20059;-62
2022/03/30 13:31:48;;;;;;;4.32;1.58;;;;;;;;;;5068052;28;20159;-62
2022/03/30 13:34:16;;;;;;;6.15;1.60;;;;;;;;;;5069387;28;20049;-64
2022/03/30 13:36:45;;;;;;;3.90;1.50;;;;;;;;;;5068905;28;20052;-63
2022/03/30 13:39:12;;;;;;;3.45;1.58;;;;;;;;;;5068967;28;20136;-62
2022/03/30 13:41:39;;;;;;;3.13;1.50;;;;;;;;;;5068134;28;20060;-62
2022/03/30 13:44:05;;;;;;;7.60;1.65;;;;;;;;;;5068144;28;20061;-63
2022/03/30 13:46:32;;;;;;;4.15;1.50;;;;;;;;;;5067806;28;20057;-63
2022/03/30 13:48:58;;;;;;;7.75;1.60;;;;;;;;;;5068420;28;20053;-63
2022/03/30 13:51:25;;;;;;;7.22;1.67;;;;;;;;;;5068743;28;20080;-63
2022/03/30 13:53:51;;;;;;;5.32;1.70;;;;;;;;;;5068507;28;20092;-63
2022/03/30 13:56:18;;;;;;;4.35;1.60;;;;;;;;;;5069043;28;20138;-64
2022/03/30 13:58:52;;;;;;;4.05;1.77;;;;;;;;;;5068511;28;20057;-64
2022/03/30 14:01:20;;;;;;;5.82;1.50;;;;;;;;;;5068259;28;20049;-64
2022/03/30 14:03:47;;;;;;;6.47;1.63;;;;;;;;;;5068162;28;20169;-64
2022/03/30 14:06:13;;;;;;;5.80;1.40;;;;;;;;;;5067951;28;20124;-64
2022/03/30 14:08:43;;;;;;;5.30;1.65;;;;;;;;;;5068402;28;20053;-63
2022/03/30 14:11:10;;;;;;;5.15;1.50;;;;;;;;;;5068209;28;20053;-63
2022/03/30 14:13:39;;;;;;;3.67;1.45;;;;;;;;;;5067778;28;20140;-64
2022/03/30 14:16:08;;;;;;;4.88;1.48;;;;;;;;;;5067804;28;20056;-64
2022/03/30 14:18:39;;;;;;;3.42;1.35;;;;;;;;;;5067604;28;20120;-63
2022/03/30 14:21:05;;;;;;;4.55;1.70;;;;;;;;;;5067862;28;20099;-64
2022/03/30 14:23:31;;;;;;;6.45;1.75;;;;;;;;;;5067578;28;20407;-64
2022/03/30 14:25:59;;;;;;;4.05;1.60;;;;;;;;;;5068099;28;20065;-64
2022/03/30 14:28:26;;;;;;;4.97;1.77;;;;;;;;;;5068092;28;20515;-64
2022/03/30 14:30:52;;;;;;;6.10;1.70;;;;;;;;;;5067634;28;20147;-64
2022/03/30 14:33:19;;;;;;;3.78;1.50;;;;;;;;;;5067547;28;20076;-64
2022/03/30 14:35:46;;;;;;;8.18;1.50;;;;;;;;;;5067766;28;20083;-64
2022/03/30 14:38:12;;;;;;;4.90;1.85;;;;;;;;;;5067520;28;20438;-64
2022/03/30 14:40:40;;;;;;;5.15;1.45;;;;;;;;;;5068190;28;20110;-64